createdAt,value
2024-05-09T00:00:46.526Z,98836.27
2024-05-09T00:03:14.159Z,98835.55
2024-05-09T00:05:42.784Z,98836.83
2024-05-09T00:08:10.667Z,98839.02
2024-05-09T00:10:39.579Z,98830.98
2024-05-09T00:13:08.560Z,98831.87
2024-05-09T00:15:36.681Z,98831.73
2024-05-09T00:18:06.658Z,98832.02
2024-05-09T00:20:38.992Z,98833.42
2024-05-09T00:23:13.518Z,98831.55
2024-05-09T00:25:44.656Z,98829.31
2024-05-09T00:28:13.463Z,98829.94
2024-05-09T00:30:40.941Z,98828.23
2024-05-09T00:33:09.846Z,98829.92
2024-05-09T00:35:38.813Z,98827.29
2024-05-09T00:38:06.649Z,98827.99
2024-05-09T00:40:41.438Z,98826.43
2024-05-09T00:43:11.868Z,98823.44
2024-05-09T00:45:39.942Z,98823.32
2024-05-09T00:48:09.109Z,98822.65
2024-05-09T00:50:40.465Z,98823.81
2024-05-09T00:53:10.221Z,98823.35
2024-05-09T00:55:37.891Z,98820.21
2024-05-09T00:58:05.403Z,98819.66
2024-05-09T01:00:38.877Z,98819.19
2024-05-09T01:03:10.972Z,98817.96
2024-05-09T01:05:40.763Z,98819.52
2024-05-09T01:08:08.783Z,98813.20
2024-05-09T01:10:37.084Z,98812.64
2024-05-09T01:13:05.127Z,98812.48
2024-05-09T01:15:32.957Z,98815.05
2024-05-09T01:18:01.732Z,98817.85
2024-05-09T01:20:39.541Z,98817.42
2024-05-09T01:23:10.825Z,98816.53
2024-05-09T01:25:38.287Z,98817.63
2024-05-09T01:28:05.955Z,98816.82
2024-05-09T01:30:36.018Z,98812.98
2024-05-09T01:33:07.352Z,98813.98
2024-05-09T01:35:36.779Z,98810.41
2024-05-09T01:38:04.681Z,98815.20
2024-05-09T01:40:37.748Z,98814.79
2024-05-09T01:43:08.901Z,98816.24
2024-05-09T01:45:38.164Z,98819.23
2024-05-09T01:48:06.374Z,98823.88
2024-05-09T01:50:39.415Z,98826.29
2024-05-09T01:53:10.717Z,98825.88
2024-05-09T01:55:38.603Z,98821.11
2024-05-09T01:58:06.231Z,98821.39
2024-05-09T02:00:39.415Z,98822.70
2024-05-09T02:03:12.052Z,98820.70
2024-05-09T02:05:43.027Z,98817.02
2024-05-09T02:08:17.576Z,98816.98
2024-05-09T02:10:46.187Z,98817.89
2024-05-09T02:13:13.991Z,98816.52
2024-05-09T02:15:41.338Z,98814.25
2024-05-09T02:18:09.956Z,98818.02
2024-05-09T02:20:38.817Z,98816.08
2024-05-09T02:23:07.020Z,98818.75
2024-05-09T02:25:34.964Z,98817.98
2024-05-09T02:28:02.588Z,98816.34
2024-05-09T02:30:38.467Z,98819.77
2024-05-09T02:33:10.781Z,98819.44
2024-05-09T02:35:40.055Z,98817.73
2024-05-09T02:38:09.050Z,98816.39
2024-05-09T02:40:38.793Z,98812.45
2024-05-09T02:43:08.567Z,98814.13
2024-05-09T02:45:37.392Z,98813.59
2024-05-09T02:48:05.491Z,98815.80
2024-05-09T02:50:38.062Z,98815.17
2024-05-09T02:53:08.419Z,98820.52
2024-05-09T03:03:33.184Z,98824.92
2024-05-09T03:06:01.524Z,98823.11
2024-05-09T03:08:28.392Z,98826.38
2024-05-09T03:10:55.441Z,98827.00
2024-05-09T03:13:22.428Z,98824.07
2024-05-09T03:15:49.308Z,98825.42
2024-05-09T03:18:16.389Z,98825.15
2024-05-09T03:20:43.539Z,98825.73
2024-05-09T03:23:10.652Z,98829.27
2024-05-09T03:25:38.090Z,98833.83
2024-05-09T03:28:05.256Z,98830.46
2024-05-09T03:30:39.884Z,98833.23
2024-05-09T03:33:14.947Z,98836.88
2024-05-09T03:35:42.990Z,98842.05
2024-05-09T03:38:09.960Z,98840.40
2024-05-09T03:40:46.482Z,98840.23
2024-05-09T03:43:13.925Z,98839.07
2024-05-09T03:45:42.018Z,98845.61
2024-05-09T03:48:09.122Z,98848.27
2024-05-09T03:50:36.964Z,98848.40
2024-05-09T03:53:04.526Z,98848.52
2024-05-09T03:55:31.940Z,98850.17
2024-05-09T03:57:59.186Z,98853.77
2024-05-09T04:00:34.774Z,98853.42
2024-05-09T04:03:07.292Z,98851.79
2024-05-09T04:05:37.159Z,98855.23
2024-05-09T04:08:05.241Z,98856.59
2024-05-09T04:10:34.204Z,98857.36
2024-05-09T04:13:03.052Z,98861.19
2024-05-09T04:15:30.068Z,98856.02
2024-05-09T04:17:56.993Z,98862.17
2024-05-09T04:20:33.329Z,98860.54
2024-05-09T04:23:06.236Z,98865.10
2024-05-09T04:25:33.410Z,98866.66
2024-05-09T04:28:00.197Z,98867.32
2024-05-09T04:30:37.140Z,98870.77
2024-05-09T04:33:08.638Z,98871.60
2024-05-09T04:35:37.691Z,98872.05
2024-05-09T04:38:04.804Z,98874.94
2024-05-09T04:40:35.147Z,98873.45
2024-05-09T04:43:12.832Z,98871.56
2024-05-09T04:45:39.696Z,98876.80
2024-05-09T04:48:07.338Z,98873.26
2024-05-09T04:50:38.151Z,98872.92
2024-05-09T04:53:08.199Z,98871.44
2024-05-09T04:55:38.924Z,98873.02
2024-05-09T04:58:09.282Z,98875.64
2024-05-09T05:00:38.582Z,98878.29
2024-05-09T05:03:09.358Z,98881.48
2024-05-09T05:05:39.514Z,98884.27
2024-05-09T05:08:13.894Z,98885.88
2024-05-09T05:10:41.757Z,98892.47
2024-05-09T05:13:15.778Z,98890.17
2024-05-09T05:15:43.293Z,98889.20
2024-05-09T05:18:11.384Z,98891.29
2024-05-09T05:20:38.239Z,98887.21
2024-05-09T05:23:12.471Z,98889.80
2024-05-09T05:25:40.005Z,98890.54
2024-05-09T05:28:07.067Z,98894.75
2024-05-09T05:30:36.840Z,98898.33
2024-05-09T05:33:04.541Z,98896.69
2024-05-09T05:35:31.456Z,98891.49
2024-05-09T05:37:58.596Z,98890.23
2024-05-09T05:40:33.151Z,98892.63
2024-05-09T05:43:07.763Z,98891.09
2024-05-09T05:45:38.127Z,98885.22
2024-05-09T05:48:06.508Z,98883.05
2024-05-09T05:50:36.742Z,98888.30
2024-05-09T05:53:05.730Z,98892.30
2024-05-09T05:55:32.834Z,98895.45
2024-05-09T05:58:00.945Z,98895.58
2024-05-09T06:00:34.468Z,98889.89
2024-05-09T06:03:05.278Z,98890.77
2024-05-09T06:05:33.020Z,98890.09
2024-05-09T06:08:13.296Z,98884.89
2024-05-09T06:10:50.171Z,98890.96
2024-05-09T06:13:23.698Z,98888.95
2024-05-09T06:15:50.382Z,98889.13
2024-05-09T06:18:17.243Z,98886.40
2024-05-09T06:20:45.069Z,98881.48
2024-05-09T06:23:12.410Z,98881.95
2024-05-09T06:25:39.575Z,98881.49
2024-05-09T06:28:06.626Z,98876.24
2024-05-09T06:30:39.894Z,98872.42
2024-05-09T06:33:10.132Z,98874.17
2024-05-09T06:35:41.014Z,98876.92
2024-05-09T06:38:08.138Z,98875.65
2024-05-09T06:40:38.524Z,98884.70
2024-05-09T06:43:18.316Z,98880.04
2024-05-09T06:45:53.036Z,98879.42
2024-05-09T06:48:22.725Z,98879.38
2024-05-09T06:50:49.846Z,98879.60
2024-05-09T06:53:17.057Z,98880.50
2024-05-09T06:55:46.260Z,98878.49
2024-05-09T06:58:15.157Z,98881.33
2024-05-09T07:00:42.475Z,98879.17
2024-05-09T07:03:11.177Z,98880.61
2024-05-09T07:05:38.990Z,98878.38
2024-05-09T07:08:06.027Z,98880.46
2024-05-09T07:10:35.565Z,98878.20
2024-05-09T07:13:09.989Z,98878.17
2024-05-09T07:15:37.261Z,98881.29
2024-05-09T07:18:22.619Z,98878.66
2024-05-09T07:20:50.605Z,98879.21
2024-05-09T07:23:18.149Z,98876.34
2024-05-09T07:25:45.189Z,98879.40
2024-05-09T07:28:16.406Z,98879.23
2024-05-09T07:30:43.350Z,98873.31
2024-05-09T07:33:17.195Z,98872.71
2024-05-09T07:35:44.315Z,98871.39
2024-05-09T07:38:11.006Z,98871.54
2024-05-09T07:40:38.817Z,98871.44
2024-05-09T07:43:09.903Z,98877.20
2024-05-09T07:45:48.380Z,98879.30
2024-05-09T07:53:39.179Z,98880.37
2024-05-09T07:56:10.199Z,98876.95
2024-05-09T07:58:38.493Z,98878.29
2024-05-09T08:01:07.932Z,98882.51
2024-05-09T08:03:34.838Z,98883.89
2024-05-09T08:06:01.924Z,98879.12
2024-05-09T08:08:28.994Z,98878.98
2024-05-09T08:10:56.268Z,98878.91
2024-05-09T08:13:23.300Z,98881.80
2024-05-09T08:15:51.032Z,98878.89
2024-05-09T08:18:18.125Z,98874.58
2024-05-09T08:20:47.346Z,98873.16
2024-05-09T08:23:14.160Z,98868.34
2024-05-09T08:25:43.731Z,98862.52
2024-05-09T08:28:10.810Z,98870.53
2024-05-09T08:30:38.495Z,98869.11
2024-05-09T08:33:06.694Z,98869.34
2024-05-09T08:35:35.131Z,98863.89
2024-05-09T08:38:03.060Z,98863.95
2024-05-09T08:40:36.037Z,98864.84
2024-05-09T08:43:08.360Z,98862.66
2024-05-09T08:45:37.806Z,98863.69
2024-05-09T08:48:07.321Z,98858.14
2024-05-09T08:50:38.899Z,98855.16
2024-05-09T08:53:07.454Z,98855.11
2024-05-09T08:55:37.280Z,98855.78
2024-05-09T08:58:06.121Z,98854.96
2024-05-09T09:00:37.010Z,98858.11
2024-05-09T09:03:06.364Z,98856.42
2024-05-09T09:05:33.794Z,98857.79
2024-05-09T09:08:02.664Z,98855.16
2024-05-09T09:10:32.298Z,98857.14
2024-05-09T09:13:03.859Z,98859.41
2024-05-09T09:15:30.901Z,98854.36
2024-05-09T09:17:58.574Z,98858.77
2024-05-09T09:20:33.529Z,98857.18
2024-05-09T09:23:03.493Z,98863.60
2024-05-09T09:25:32.712Z,98860.44
2024-05-09T09:27:59.733Z,98854.93
2024-05-09T09:30:35.150Z,98849.90
2024-05-09T09:33:08.020Z,98850.71
2024-05-09T09:35:35.507Z,98850.02
2024-05-09T09:38:03.688Z,98852.04
2024-05-09T09:40:35.831Z,98846.46
2024-05-09T09:43:08.482Z,98848.73
2024-05-09T09:45:35.500Z,98848.73
2024-05-09T09:48:04.591Z,98846.74
2024-05-09T09:50:34.834Z,98844.19
2024-05-09T09:53:03.397Z,98845.33
2024-05-09T09:55:31.831Z,98845.80
2024-05-09T09:57:58.813Z,98846.52
2024-05-09T10:00:32.012Z,98844.32
2024-05-09T10:03:00.726Z,98845.33
2024-05-09T10:05:36.043Z,98846.30
2024-05-09T10:08:06.301Z,98844.42
2024-05-09T10:10:34.462Z,98842.34
2024-05-09T10:13:07.768Z,98841.77
2024-05-09T10:15:50.375Z,98836.33
2024-05-09T10:18:24.062Z,98832.48
2024-05-09T10:20:53.635Z,98831.59
2024-05-09T10:23:27.634Z,98824.45
2024-05-09T10:25:58.147Z,98829.30
2024-05-09T10:28:28.722Z,98829.64
2024-05-09T10:31:08.597Z,98827.42
2024-05-09T10:33:41.033Z,98825.73
2024-05-09T10:36:18.037Z,98820.45
2024-05-09T10:40:26.366Z,98813.34
2024-05-09T10:42:59.561Z,98809.99
2024-05-09T10:45:27.857Z,98809.97
2024-05-09T10:47:55.393Z,98807.54
2024-05-09T10:50:28.475Z,98802.23
2024-05-09T10:52:59.215Z,98803.52
2024-05-09T10:55:27.361Z,98802.31
2024-05-09T10:57:54.874Z,98798.67
2024-05-09T11:00:27.830Z,98797.46
2024-05-09T11:03:01.041Z,98796.05
2024-05-09T11:05:28.645Z,98795.52
2024-05-09T11:07:56.099Z,98798.27
2024-05-09T11:10:27.890Z,98795.42
2024-05-09T11:13:01.284Z,98789.99
2024-05-09T11:15:41.556Z,98790.96
2024-05-09T11:18:24.225Z,98786.92
2024-05-09T11:20:53.198Z,98788.55
2024-05-09T11:23:26.104Z,98788.02
2024-05-09T11:25:58.016Z,98792.64
2024-05-09T11:28:26.826Z,98787.38
2024-05-09T11:31:07.393Z,98786.20
2024-05-09T11:33:43.404Z,98782.35
2024-05-09T11:36:11.184Z,98784.09
2024-05-09T11:38:38.575Z,98779.45
2024-05-09T11:41:05.964Z,98777.73
2024-05-09T11:43:33.751Z,98776.09
2024-05-09T11:46:02.658Z,98771.67
2024-05-09T11:48:30.763Z,98768.98
2024-05-09T11:50:58.387Z,98767.84
2024-05-09T11:53:25.644Z,98766.48
2024-05-09T11:55:53.083Z,98763.64
2024-05-09T11:58:23.552Z,98761.08
2024-05-09T12:00:51.065Z,98759.10
2024-05-09T12:03:18.631Z,98761.07
2024-05-09T12:05:46.096Z,98760.73
2024-05-09T12:08:14.077Z,98762.77
2024-05-09T12:10:41.748Z,98761.51
2024-05-09T12:13:09.898Z,98759.10
2024-05-09T12:15:38.370Z,98755.66
2024-05-09T12:18:07.157Z,98756.08
2024-05-09T12:20:38.442Z,98758.86
2024-05-09T12:23:08.828Z,98756.95
2024-05-09T12:25:38.209Z,98754.42
2024-05-09T12:28:06.116Z,98752.81
2024-05-09T12:30:39.890Z,98748.48
2024-05-09T12:33:11.254Z,98746.13
2024-05-09T12:35:39.865Z,98746.88
2024-05-09T12:38:07.290Z,98746.45
2024-05-09T12:40:37.646Z,98745.16
2024-05-09T12:43:07.637Z,98742.27
2024-05-09T12:45:35.958Z,98742.16
2024-05-09T12:48:07.110Z,98740.50
2024-05-09T12:50:35.061Z,98734.08
2024-05-09T12:53:03.791Z,98734.78
2024-05-09T12:55:40.527Z,98737.77
2024-05-09T12:58:18.844Z,98731.36
2024-05-09T13:00:47.011Z,98729.92
2024-05-09T13:03:14.966Z,98727.21
2024-05-09T13:05:44.643Z,98727.59
2024-05-09T13:08:12.911Z,98727.53
2024-05-09T13:10:40.580Z,98723.50
2024-05-09T13:13:11.438Z,98721.96
2024-05-09T13:15:39.100Z,98722.88
2024-05-09T13:18:06.943Z,98723.94
2024-05-09T13:20:36.156Z,98718.66
2024-05-09T13:23:05.752Z,98714.72
2024-05-09T13:25:34.446Z,98714.79
2024-05-09T13:28:05.328Z,98713.13
2024-05-09T13:30:40.083Z,98712.84
2024-05-09T13:33:11.518Z,98712.39
2024-05-09T13:35:45.661Z,98715.31
2024-05-09T13:38:20.034Z,98712.64
2024-05-09T13:40:48.302Z,98708.70
2024-05-09T13:43:16.095Z,98708.27
2024-05-09T13:45:48.623Z,98705.39
2024-05-09T13:48:16.269Z,98702.70
2024-05-09T13:50:43.799Z,98698.45
2024-05-09T13:53:11.698Z,98695.38
2024-05-09T13:55:40.696Z,98695.98
2024-05-09T13:58:09.324Z,98695.48
2024-05-09T14:00:45.927Z,98695.96
2024-05-09T14:03:18.092Z,98696.02
2024-05-09T14:05:47.633Z,98697.41
2024-05-09T14:08:17.707Z,98695.55
2024-05-09T14:10:46.621Z,98694.84
2024-05-09T14:13:14.791Z,98694.13
2024-05-09T14:15:42.296Z,98692.38
2024-05-09T14:18:13.106Z,98690.09
2024-05-09T14:20:42.683Z,98689.14
2024-05-09T14:23:13.835Z,98689.96
2024-05-09T14:25:43.288Z,98689.80
2024-05-09T14:28:12.513Z,98687.41
2024-05-09T14:30:41.458Z,98686.98
2024-05-09T14:33:09.668Z,98678.07
2024-05-09T14:35:38.450Z,98683.15
2024-05-09T14:38:07.066Z,98683.09
2024-05-09T14:40:41.324Z,98682.04
2024-05-09T14:43:15.164Z,98678.98
2024-05-09T14:45:44.114Z,98680.16
2024-05-09T14:48:13.295Z,98677.50
2024-05-09T14:50:41.241Z,98678.90
2024-05-09T14:53:10.068Z,98680.66
2024-05-09T14:55:41.996Z,98677.38
2024-05-09T14:58:11.070Z,98674.77
2024-05-09T15:00:45.627Z,98674.45
2024-05-09T15:03:22.734Z,98675.66
2024-05-09T15:05:51.225Z,98672.21
2024-05-09T15:08:19.412Z,98670.69
2024-05-09T15:10:49.615Z,98673.98
2024-05-09T15:13:18.806Z,98674.95
2024-05-09T15:15:46.751Z,98674.02
2024-05-09T15:18:14.670Z,98671.56
2024-05-09T15:20:43.462Z,98668.17
2024-05-09T15:23:18.270Z,98660.68
2024-05-09T15:25:46.217Z,98662.10
2024-05-09T15:28:17.658Z,98657.25
2024-05-09T15:30:46.785Z,98655.98
2024-05-09T15:33:15.206Z,98654.90
2024-05-09T15:35:47.606Z,98653.10
2024-05-09T15:38:15.992Z,98656.27
2024-05-09T15:40:43.696Z,98653.00
2024-05-09T15:43:13.495Z,98655.66
2024-05-09T15:45:44.589Z,98653.14
2024-05-09T15:48:14.657Z,98656.63
2024-05-09T15:50:42.984Z,98655.10
2024-05-09T15:53:14.849Z,98653.51
2024-05-09T15:55:42.608Z,98656.08
2024-05-09T15:58:10.275Z,98659.56
2024-05-09T16:00:41.514Z,98659.52
2024-05-09T16:03:11.774Z,98660.31
2024-05-09T16:05:46.150Z,98662.11
2024-05-09T16:08:14.506Z,98661.35
2024-05-09T16:10:47.802Z,98656.60
2024-05-09T16:13:19.690Z,98656.10
2024-05-09T16:15:51.870Z,98653.60
2024-05-09T16:18:19.605Z,98658.83
2024-05-09T16:20:49.482Z,98655.80
2024-05-09T16:23:17.939Z,98657.77
2024-05-09T16:25:47.503Z,98659.95
2024-05-09T16:28:19.212Z,98658.86
2024-05-09T16:30:46.874Z,98657.70
2024-05-09T16:33:20.744Z,98656.22
2024-05-09T16:35:51.102Z,98659.61
2024-05-09T16:38:27.510Z,98661.45
2024-05-09T16:40:55.183Z,98662.43
2024-05-09T16:43:27.659Z,98662.75
2024-05-09T16:45:55.173Z,98665.31
2024-05-09T16:48:25.557Z,98667.04
2024-05-09T16:50:52.905Z,98661.73
2024-05-09T16:53:20.911Z,98664.84
2024-05-09T16:55:48.302Z,98664.02
2024-05-09T16:58:20.780Z,98663.13
2024-05-09T17:00:51.071Z,98663.49
2024-05-09T17:03:20.980Z,98666.53
2024-05-09T17:05:50.379Z,98665.76
2024-05-09T17:08:18.181Z,98665.19
2024-05-09T17:10:46.439Z,98665.29
2024-05-09T17:13:14.158Z,98665.27
2024-05-09T17:15:44.166Z,98668.50
2024-05-09T17:18:11.568Z,98668.77
2024-05-09T17:20:38.912Z,98667.21
2024-05-09T17:23:13.321Z,98669.16
2024-05-09T17:25:41.627Z,98667.23
2024-05-09T17:28:09.146Z,98667.55
2024-05-09T17:30:40.783Z,98672.19
2024-05-09T17:33:12.930Z,98668.22
2024-05-09T17:35:40.868Z,98668.49
2024-05-09T17:38:08.384Z,98669.84
2024-05-09T17:40:40.349Z,98668.73
2024-05-09T17:43:09.615Z,98668.67
2024-05-09T17:45:43.497Z,98672.23
2024-05-09T17:48:11.798Z,98674.76
2024-05-09T17:50:43.471Z,98677.91
2024-05-09T17:53:11.315Z,98677.38
2024-05-09T17:55:41.563Z,98679.65
2024-05-09T17:58:10.232Z,98680.91
2024-05-09T18:00:42.303Z,98683.57
2024-05-09T18:03:11.858Z,98686.95
2024-05-09T18:05:40.825Z,98689.27
2024-05-09T18:08:08.724Z,98691.48
2024-05-09T18:10:39.120Z,98691.25
2024-05-09T18:13:11.077Z,98696.02
2024-05-09T18:15:39.390Z,98695.66
2024-05-09T18:18:07.757Z,98697.56
2024-05-09T18:20:42.243Z,98702.44
2024-05-09T18:23:14.167Z,98702.72
2024-05-09T18:25:42.679Z,98701.98
2024-05-09T18:28:10.133Z,98707.85
2024-05-09T18:30:38.010Z,98711.79
2024-05-09T18:33:08.049Z,98711.21
2024-05-09T18:35:36.917Z,98715.80
2024-05-09T18:38:10.631Z,98720.65
2024-05-09T18:40:40.262Z,98724.27
2024-05-09T18:43:09.447Z,98727.68
2024-05-09T18:45:38.224Z,98726.97
2024-05-09T18:48:09.147Z,98726.52
2024-05-09T18:50:40.923Z,98727.19
2024-05-09T18:53:12.584Z,98729.03
2024-05-09T18:55:44.290Z,98731.27
2024-05-09T18:58:12.070Z,98734.88
2024-05-09T19:00:43.896Z,98735.89
2024-05-09T19:03:14.548Z,98740.83
2024-05-09T19:05:44.392Z,98744.44
2024-05-09T19:08:14.505Z,98745.00
2024-05-09T19:10:42.025Z,98745.48
2024-05-09T19:13:12.531Z,98748.59
2024-05-09T19:15:42.061Z,98749.38
2024-05-09T19:18:11.723Z,98748.89
2024-05-09T19:20:39.656Z,98752.89
2024-05-09T19:23:07.652Z,98756.29
2024-05-09T19:25:35.677Z,98755.14
2024-05-09T19:28:04.263Z,98759.20
2024-05-09T19:30:38.847Z,98760.61
2024-05-09T19:33:12.064Z,98758.46
2024-05-09T19:35:40.723Z,98761.95
2024-05-09T19:38:08.123Z,98764.80
2024-05-09T19:40:35.993Z,98769.00
2024-05-09T19:43:05.099Z,98771.85
2024-05-09T19:45:35.090Z,98773.73
2024-05-09T19:48:04.154Z,98769.31
2024-05-09T19:50:39.984Z,98770.59
2024-05-09T19:53:12.552Z,98771.64
2024-05-09T19:55:40.962Z,98777.65
2024-05-09T19:58:09.221Z,98777.20
2024-05-09T20:00:39.472Z,98782.77
2024-05-09T20:03:10.194Z,98784.02
2024-05-09T20:05:38.564Z,98786.80
2024-05-09T20:08:07.006Z,98790.92
2024-05-09T20:10:35.926Z,98793.33
2024-05-09T20:13:06.209Z,98793.23
2024-05-09T20:15:35.484Z,98791.05
2024-05-09T20:18:03.551Z,98793.06
2024-05-09T20:20:37.659Z,98797.79
2024-05-09T20:23:09.891Z,98798.08
2024-05-09T20:25:37.359Z,98798.80
2024-05-09T20:28:05.935Z,98801.06
2024-05-09T20:30:34.592Z,98800.61
2024-05-09T20:33:04.389Z,98792.91
2024-05-09T20:35:33.212Z,98791.02
2024-05-09T20:38:01.377Z,98790.31
2024-05-09T20:40:33.834Z,98792.47
2024-05-09T20:43:05.479Z,98792.11
2024-05-09T20:45:33.293Z,98798.09
2024-05-09T20:48:01.053Z,98800.77
2024-05-09T20:50:36.646Z,98798.52
2024-05-09T20:53:12.880Z,98799.51
2024-05-09T20:55:41.515Z,98797.61
2024-05-09T20:58:09.698Z,98802.77
2024-05-09T21:00:40.957Z,98800.77
2024-05-09T21:03:12.685Z,98800.65
2024-05-09T21:05:41.064Z,98801.61
2024-05-09T21:08:08.846Z,98800.73
2024-05-09T21:10:36.818Z,98804.84
2024-05-09T21:13:05.648Z,98805.77
2024-05-09T21:15:34.031Z,98809.02
2024-05-09T21:18:01.554Z,98803.79
2024-05-09T21:20:32.454Z,98809.76
2024-05-09T21:23:04.142Z,98812.27
2024-05-09T21:25:31.603Z,98812.36
2024-05-09T21:27:59.105Z,98811.55
2024-05-09T21:30:37.052Z,98818.92
2024-05-09T21:33:09.834Z,98826.95
2024-05-09T21:35:41.023Z,98825.59
2024-05-09T21:38:08.568Z,98825.55
2024-05-09T21:40:37.179Z,98823.45
2024-05-09T21:43:06.454Z,98827.06
2024-05-09T21:45:34.356Z,98825.23
2024-05-09T21:48:05.438Z,98827.42
2024-05-09T21:50:39.607Z,98826.43
2024-05-09T21:53:10.866Z,98827.66
2024-05-09T21:55:38.342Z,98829.90
2024-05-09T21:58:05.868Z,98834.08
2024-05-09T22:00:38.012Z,98835.06
2024-05-09T22:03:07.563Z,98838.50
2024-05-09T22:05:36.071Z,98835.59
2024-05-09T22:08:03.674Z,98838.31
2024-05-09T22:10:34.570Z,98836.72
2024-05-09T22:13:07.171Z,98837.65
2024-05-09T22:15:35.661Z,98837.13
2024-05-09T22:18:04.326Z,98840.13
2024-05-09T22:20:37.134Z,98837.70
2024-05-09T22:23:07.661Z,98835.73
2024-05-09T22:25:36.093Z,98834.78
2024-05-09T22:28:03.824Z,98828.15
2024-05-09T22:30:36.426Z,98831.23
2024-05-09T22:33:08.278Z,98833.88
2024-05-09T22:35:36.543Z,98834.64
2024-05-09T22:38:04.063Z,98837.34
2024-05-09T22:40:42.055Z,98837.50
2024-05-09T22:43:23.303Z,98832.79
2024-05-09T22:45:53.958Z,98833.79
2024-05-09T22:48:21.897Z,98830.11
2024-05-09T22:50:49.417Z,98830.43
2024-05-09T22:53:16.849Z,98832.17
2024-05-09T22:57:30.808Z,98834.06
2024-05-09T22:59:58.116Z,98838.19
2024-05-09T23:02:25.612Z,98837.52
2024-05-09T23:04:53.219Z,98834.84
2024-05-09T23:07:20.699Z,98831.05
2024-05-09T23:09:48.137Z,98827.71
2024-05-09T23:12:18.466Z,98825.18
2024-05-09T23:14:46.178Z,98823.31
2024-05-09T23:17:13.555Z,98828.40
2024-05-09T23:19:40.938Z,98825.20
2024-05-09T23:22:08.427Z,98828.44
2024-05-09T23:24:35.878Z,98833.98
2024-05-09T23:27:03.434Z,98836.80
2024-05-09T23:29:30.988Z,98836.80
2024-05-09T23:31:58.239Z,98839.10
2024-05-09T23:34:25.719Z,98835.75
2024-05-09T23:36:53.230Z,98832.03
2024-05-09T23:39:20.601Z,98830.02
2024-05-09T23:41:47.941Z,98828.77
2024-05-09T23:44:15.253Z,98828.07
2024-05-09T23:46:42.734Z,98830.05
2024-05-09T23:49:11.307Z,98827.36
2024-05-09T23:51:38.841Z,98827.04
2024-05-09T23:54:08.396Z,98824.05
2024-05-09T23:56:35.810Z,98828.44
2024-05-09T23:59:03.142Z,98830.64
